createdAt,value
2023-01-27T00:01:10.915Z,83.54
2023-01-27T00:03:38.568Z,83.46
2023-01-27T00:06:06.519Z,83.56
2023-01-27T00:08:34.506Z,83.46
2023-01-27T00:11:20.738Z,83.84
2023-01-27T00:13:48.647Z,83.64
2023-01-27T00:16:16.471Z,83.47
2023-01-27T00:18:44.268Z,83.66
2023-01-27T00:21:30.716Z,83.38
2023-01-27T00:24:17.191Z,83.53
2023-01-27T00:26:44.899Z,83.56
2023-01-27T00:29:13.442Z,83.46
2023-01-27T00:31:59.750Z,83.52
2023-01-27T00:34:27.487Z,83.46
2023-01-27T00:36:55.205Z,83.68
2023-01-27T00:39:23.008Z,83.61
2023-01-27T00:41:50.699Z,83.54
2023-01-27T00:44:18.310Z,83.52
2023-01-27T00:46:46.065Z,83.58
2023-01-27T00:49:13.821Z,83.55
2023-01-27T00:51:42.239Z,83.20
2023-01-27T00:54:10.327Z,83.56
2023-01-27T00:56:38.542Z,83.88
2023-01-27T00:59:06.726Z,83.61
2023-01-27T01:01:35.186Z,83.97
2023-01-27T01:04:03.649Z,83.74
2023-01-27T01:06:31.874Z,83.67
2023-01-27T01:08:59.625Z,83.72
2023-01-27T01:11:27.687Z,84.08
2023-01-27T01:13:56.560Z,83.85
2023-01-27T01:16:25.628Z,83.97
2023-01-27T01:18:54.099Z,84.15
2023-01-27T01:21:22.028Z,83.87
2023-01-27T01:23:50.134Z,83.81
2023-01-27T01:26:18.720Z,83.78
2023-01-27T01:28:47.092Z,83.84
2023-01-27T01:31:17.901Z,84.01
2023-01-27T01:33:47.311Z,84.08
2023-01-27T01:36:18.673Z,83.82
2023-01-27T01:38:46.840Z,83.76
2023-01-27T01:41:18.459Z,83.76
2023-01-27T01:43:48.268Z,83.82
2023-01-27T01:46:16.826Z,83.67
2023-01-27T01:48:58.463Z,83.97
2023-01-27T01:51:40.240Z,84.07
2023-01-27T01:54:17.036Z,84.04
2023-01-27T01:56:58.138Z,83.93
2023-01-27T01:59:35.468Z,83.82
2023-01-27T02:02:07.378Z,83.78
2023-01-27T02:04:42.511Z,83.83
2023-01-27T02:07:19.894Z,83.85
2023-01-27T02:09:47.787Z,83.73
2023-01-27T02:12:15.582Z,83.52
2023-01-27T02:14:43.306Z,83.71
2023-01-27T02:17:13.058Z,83.78
2023-01-27T02:20:05.249Z,83.83
2023-01-27T02:22:35.894Z,84.10
2023-01-27T02:25:15.519Z,84.13
2023-01-27T02:27:43.418Z,84.09
2023-01-27T02:30:11.459Z,84.06
2023-01-27T02:32:40.206Z,84.03
2023-01-27T02:35:14.170Z,84.43
2023-01-27T02:37:42.438Z,84.25
2023-01-27T02:40:12.363Z,84.41
2023-01-27T02:42:39.970Z,84.38
2023-01-27T02:45:08.033Z,84.38
2023-01-27T02:47:35.981Z,84.33
2023-01-27T02:50:03.929Z,84.64
2023-01-27T02:52:31.914Z,84.53
2023-01-27T02:54:59.826Z,84.61
2023-01-27T02:57:27.555Z,84.94
2023-01-27T03:00:13.273Z,85.04
2023-01-27T03:02:41.041Z,85.34
2023-01-27T03:05:09.102Z,85.27
2023-01-27T03:07:36.769Z,85.36
2023-01-27T03:10:04.819Z,84.96
2023-01-27T03:12:32.495Z,84.49
2023-01-27T03:15:19.000Z,84.48
2023-01-27T03:18:05.759Z,84.57
2023-01-27T03:20:33.932Z,84.44
2023-01-27T03:23:01.673Z,84.61
2023-01-27T03:25:29.485Z,84.72
2023-01-27T03:27:57.698Z,84.73
2023-01-27T03:30:48.527Z,84.42
2023-01-27T03:33:23.138Z,84.11
2023-01-27T03:36:20.845Z,84.47
2023-01-27T03:39:09.291Z,84.29
2023-01-27T03:41:55.732Z,84.31
2023-01-27T03:44:44.993Z,84.44
2023-01-27T03:47:12.599Z,84.22
2023-01-27T03:49:40.315Z,84.47
2023-01-27T03:52:07.965Z,84.63
2023-01-27T03:54:35.625Z,84.89
2023-01-27T03:57:06.145Z,84.61
2023-01-27T03:59:34.292Z,84.53
2023-01-27T04:02:20.916Z,84.47
2023-01-27T04:05:07.280Z,84.54
2023-01-27T04:07:36.221Z,84.66
2023-01-27T04:10:05.323Z,84.92
2023-01-27T04:12:33.005Z,84.85
2023-01-27T04:15:00.671Z,84.76
2023-01-27T04:17:28.350Z,84.63
2023-01-27T04:19:56.214Z,84.82
2023-01-27T04:22:23.805Z,85.01
2023-01-27T04:24:51.546Z,85.17
2023-01-27T04:27:20.378Z,85.28
2023-01-27T04:29:48.714Z,85.23
2023-01-27T04:32:16.385Z,85.59
2023-01-27T04:34:43.963Z,85.81
2023-01-27T04:37:11.810Z,85.79
2023-01-27T04:39:41.306Z,85.44
2023-01-27T04:42:09.002Z,85.51
2023-01-27T04:44:36.669Z,85.57
2023-01-27T04:47:04.355Z,85.37
2023-01-27T04:49:31.998Z,85.52
2023-01-27T04:51:59.688Z,85.47
2023-01-27T04:54:27.287Z,85.35
2023-01-27T04:56:58.548Z,85.43
2023-01-27T04:59:26.923Z,85.36
2023-01-27T05:01:54.871Z,84.72
2023-01-27T05:04:22.786Z,84.62
2023-01-27T05:06:50.539Z,85.12
2023-01-27T05:09:18.248Z,85.43
2023-01-27T05:11:45.902Z,85.35
2023-01-27T05:14:14.729Z,85.53
2023-01-27T05:16:42.516Z,85.65
2023-01-27T05:19:10.143Z,85.42
2023-01-27T05:21:37.833Z,85.46
2023-01-27T05:24:05.723Z,85.51
2023-01-27T05:26:33.453Z,85.25
2023-01-27T05:29:01.154Z,85.38
2023-01-27T05:31:31.750Z,85.73
2023-01-27T05:34:02.023Z,85.54
2023-01-27T05:36:30.440Z,85.45
2023-01-27T05:38:59.139Z,85.66
2023-01-27T05:41:31.069Z,85.33
2023-01-27T05:43:58.868Z,85.69
2023-01-27T05:46:29.331Z,85.88
2023-01-27T05:49:00.385Z,85.70
2023-01-27T05:51:33.850Z,85.72
2023-01-27T05:54:01.659Z,85.61
2023-01-27T05:56:29.425Z,85.41
2023-01-27T05:58:58.327Z,85.88
2023-01-27T06:01:29.284Z,86.25
2023-01-27T06:03:57.011Z,86.33
2023-01-27T06:06:27.170Z,85.96
2023-01-27T06:08:55.077Z,85.95
2023-01-27T06:11:24.318Z,85.88
2023-01-27T06:13:53.116Z,85.82
2023-01-27T06:16:22.356Z,85.84
2023-01-27T06:18:50.308Z,86.07
2023-01-27T06:21:18.438Z,86.27
2023-01-27T06:23:46.169Z,86.49
2023-01-27T06:26:18.895Z,86.62
2023-01-27T06:28:46.753Z,86.33
2023-01-27T06:31:17.384Z,86.49
2023-01-27T06:33:45.334Z,86.31
2023-01-27T06:36:18.798Z,86.26
2023-01-27T06:38:47.084Z,86.33
2023-01-27T06:41:15.293Z,86.52
2023-01-27T06:43:42.945Z,86.52
2023-01-27T06:46:10.769Z,86.74
2023-01-27T06:48:38.453Z,87.10
2023-01-27T06:51:06.853Z,86.63
2023-01-27T06:53:37.222Z,86.95
2023-01-27T06:56:05.976Z,86.82
2023-01-27T06:58:33.650Z,86.92
2023-01-27T07:01:01.623Z,86.89
2023-01-27T07:03:29.859Z,86.98
2023-01-27T07:05:58.227Z,87.12
2023-01-27T07:08:26.912Z,87.54
2023-01-27T07:10:54.626Z,87.30
2023-01-27T07:13:22.597Z,87.08
2023-01-27T07:15:55.449Z,87.09
2023-01-27T07:18:23.403Z,86.68
2023-01-27T07:20:51.553Z,86.81
2023-01-27T07:23:19.216Z,86.62
2023-01-27T07:25:46.850Z,86.74
2023-01-27T07:28:14.505Z,86.33
2023-01-27T07:30:43.985Z,86.54
2023-01-27T07:33:14.414Z,86.34
2023-01-27T07:35:43.202Z,86.28
2023-01-27T07:38:11.150Z,86.26
2023-01-27T07:40:38.840Z,86.16
2023-01-27T07:43:06.652Z,85.97
2023-01-27T07:45:35.683Z,85.74
2023-01-27T07:48:07.035Z,86.03
2023-01-27T07:50:36.208Z,85.95
2023-01-27T07:53:05.236Z,85.14
2023-01-27T07:55:33.994Z,85.44
2023-01-27T07:58:02.243Z,85.17
2023-01-27T08:00:30.880Z,84.93
2023-01-27T08:02:59.708Z,84.47
2023-01-27T08:05:28.462Z,84.10
2023-01-27T08:07:58.573Z,83.72
2023-01-27T08:10:26.709Z,83.13
2023-01-27T08:12:54.415Z,83.52
2023-01-27T08:15:22.805Z,83.18
2023-01-27T08:17:54.981Z,82.12
2023-01-27T08:20:24.401Z,81.79
2023-01-27T08:22:52.732Z,81.48
2023-01-27T08:25:20.595Z,81.48
2023-01-27T08:27:50.720Z,80.91
2023-01-27T08:30:19.347Z,81.55
2023-01-27T08:32:47.799Z,79.44
2023-01-27T08:35:15.622Z,79.44
2023-01-27T08:37:43.232Z,78.44
2023-01-27T08:40:11.923Z,78.89
2023-01-27T08:42:39.734Z,75.80
2023-01-27T08:45:08.840Z,78.64
2023-01-27T08:47:36.534Z,77.64
2023-01-27T08:50:04.376Z,75.82
2023-01-27T08:52:32.129Z,76.94
2023-01-27T08:55:00.462Z,76.69
2023-01-27T08:57:28.353Z,75.03
2023-01-27T08:59:55.968Z,76.42
2023-01-27T09:02:24.382Z,76.35
2023-01-27T09:04:52.242Z,73.58
2023-01-27T09:07:19.981Z,74.00
2023-01-27T09:09:48.487Z,70.36
2023-01-27T09:12:16.595Z,73.98
2023-01-27T09:14:44.344Z,72.75
2023-01-27T09:17:12.013Z,67.68
2023-01-27T09:19:39.739Z,71.06
2023-01-27T09:22:07.437Z,67.96
2023-01-27T09:24:35.083Z,65.26
2023-01-27T09:27:02.777Z,65.86
2023-01-27T09:29:31.105Z,67.90
2023-01-27T09:31:59.411Z,67.15
2023-01-27T09:34:27.177Z,67.76
2023-01-27T09:37:01.277Z,67.54
2023-01-27T09:39:31.292Z,67.64
2023-01-27T09:42:08.899Z,67.22
2023-01-27T09:45:07.652Z,66.92
2023-01-27T09:47:46.497Z,66.32
2023-01-27T09:50:20.352Z,67.16
2023-01-27T09:52:57.802Z,66.67
2023-01-27T09:55:54.893Z,64.89
2023-01-27T09:58:31.415Z,67.30
2023-01-27T10:01:12.081Z,66.92
2023-01-27T10:04:12.729Z,67.49
2023-01-27T10:06:52.743Z,63.61
2023-01-27T10:09:23.143Z,67.35
2023-01-27T10:12:09.232Z,67.24
2023-01-27T10:14:39.580Z,67.51
2023-01-27T10:17:15.073Z,68.65
2023-01-27T10:20:05.575Z,68.12
2023-01-27T10:22:50.393Z,68.40
2023-01-27T10:25:33.032Z,67.86
2023-01-27T10:28:11.094Z,66.75
2023-01-27T10:30:56.128Z,67.25
2023-01-27T10:33:36.429Z,65.17
2023-01-27T10:36:16.771Z,66.31
2023-01-27T10:38:52.278Z,65.75
2023-01-27T10:41:51.267Z,65.68
2023-01-27T10:44:35.486Z,65.75
2023-01-27T10:47:09.251Z,66.85
2023-01-27T10:50:01.728Z,65.37
2023-01-27T10:52:48.976Z,64.75
2023-01-27T10:55:22.531Z,65.75
2023-01-27T10:58:04.750Z,64.64
2023-01-27T11:01:18.186Z,65.22
2023-01-27T11:03:34.698Z,64.30
2023-01-27T11:06:12.357Z,66.28
2023-01-27T11:08:44.986Z,65.90
2023-01-27T11:11:35.789Z,66.88
2023-01-27T11:14:12.601Z,67.22
2023-01-27T11:16:45.838Z,67.43
2023-01-27T11:19:42.498Z,66.75
2023-01-27T11:22:23.101Z,66.41
2023-01-27T11:25:14.850Z,67.71
2023-01-27T11:27:54.415Z,68.15
2023-01-27T11:30:32.346Z,68.19
2023-01-27T11:33:11.467Z,68.42
2023-01-27T11:35:39.166Z,68.55
2023-01-27T11:38:15.683Z,69.06
2023-01-27T11:40:45.819Z,68.96
2023-01-27T11:43:18.935Z,68.82
2023-01-27T11:45:48.457Z,69.07
2023-01-27T11:48:18.448Z,69.28
2023-01-27T11:50:46.878Z,69.48
2023-01-27T11:53:22.741Z,69.49
2023-01-27T11:55:57.374Z,69.31
2023-01-27T11:58:26.482Z,69.85
2023-01-27T12:00:59.039Z,69.62
2023-01-27T12:03:42.299Z,69.67
2023-01-27T12:06:33.776Z,69.76
2023-01-27T12:09:01.603Z,69.77
2023-01-27T12:11:31.197Z,70.01
2023-01-27T12:14:01.656Z,70.70
2023-01-27T12:16:42.798Z,71.03
2023-01-27T12:19:25.344Z,71.01
2023-01-27T12:21:58.041Z,71.52
2023-01-27T12:24:38.429Z,71.34
2023-01-27T12:27:07.526Z,71.28
2023-01-27T12:29:45.026Z,71.47
2023-01-27T12:32:21.514Z,71.83
2023-01-27T12:34:52.680Z,72.06
2023-01-27T12:37:29.294Z,72.55
2023-01-27T12:40:02.888Z,72.52
2023-01-27T12:42:36.514Z,72.39
2023-01-27T12:45:22.129Z,72.38
2023-01-27T12:48:10.195Z,72.95
2023-01-27T12:50:38.747Z,72.83
2023-01-27T12:53:23.597Z,72.90
2023-01-27T12:56:01.508Z,72.97
2023-01-27T12:58:55.302Z,72.85
2023-01-27T13:01:23.077Z,73.65
2023-01-27T13:04:18.494Z,72.87
2023-01-27T13:06:55.581Z,73.14
2023-01-27T13:09:23.341Z,72.98
2023-01-27T13:11:52.244Z,73.08
2023-01-27T13:14:20.132Z,73.57
2023-01-27T13:16:53.272Z,73.05
2023-01-27T13:19:29.831Z,73.48
2023-01-27T13:21:58.290Z,73.88
2023-01-27T13:24:37.165Z,73.50
2023-01-27T13:27:10.909Z,73.68
2023-01-27T13:29:40.739Z,73.80
2023-01-27T13:32:18.309Z,74.22
2023-01-27T13:34:50.513Z,74.56
2023-01-27T13:37:36.788Z,74.31
2023-01-27T13:40:22.471Z,74.66
2023-01-27T13:43:01.466Z,74.50
2023-01-27T13:45:47.405Z,74.60
2023-01-27T13:48:28.427Z,74.54
2023-01-27T13:51:06.818Z,75.02
2023-01-27T13:53:34.866Z,75.32
2023-01-27T13:56:11.641Z,75.46
2023-01-27T13:58:51.322Z,75.65
2023-01-27T14:01:37.917Z,75.75
2023-01-27T14:04:24.229Z,76.01
2023-01-27T14:06:54.935Z,76.19
2023-01-27T14:09:44.147Z,76.93
2023-01-27T14:12:27.385Z,76.77
2023-01-27T14:14:59.043Z,77.72
2023-01-27T14:17:38.921Z,77.18
2023-01-27T14:20:37.346Z,77.68
2023-01-27T14:23:05.048Z,77.87
2023-01-27T14:25:57.999Z,77.52
2023-01-27T14:28:33.677Z,78.36
2023-01-27T14:31:11.753Z,78.62
2023-01-27T14:34:00.722Z,78.63
2023-01-27T14:36:48.598Z,79.43
2023-01-27T14:39:29.171Z,78.94
2023-01-27T14:42:26.056Z,79.04
2023-01-27T14:45:15.998Z,79.76
2023-01-27T14:48:13.202Z,79.67
2023-01-27T14:50:59.513Z,79.08
2023-01-27T14:53:58.820Z,79.96
2023-01-27T14:56:59.962Z,79.94
2023-01-27T14:59:37.025Z,80.74
2023-01-27T15:02:17.593Z,81.54
2023-01-27T15:05:15.366Z,80.48
2023-01-27T15:07:48.739Z,80.98
2023-01-27T15:10:27.727Z,81.86
2023-01-27T15:13:36.293Z,81.38
2023-01-27T15:16:22.925Z,82.71
2023-01-27T15:19:26.460Z,81.47
2023-01-27T15:21:54.044Z,81.66
2023-01-27T15:24:45.394Z,81.31
2023-01-27T15:27:13.468Z,82.02
2023-01-27T15:29:41.381Z,81.95
2023-01-27T15:32:26.403Z,81.17
2023-01-27T15:35:29.224Z,82.73
2023-01-27T15:38:07.747Z,81.98
2023-01-27T15:40:57.811Z,82.58
2023-01-27T15:43:30.120Z,81.40
2023-01-27T15:46:18.594Z,83.05
2023-01-27T15:48:46.669Z,82.29
2023-01-27T15:51:20.301Z,82.52
2023-01-27T15:53:54.875Z,81.86
2023-01-27T15:56:41.622Z,82.38
2023-01-27T15:59:15.980Z,81.95
2023-01-27T16:01:43.683Z,82.02
2023-01-27T16:04:11.331Z,82.76
2023-01-27T16:06:52.762Z,82.61
2023-01-27T16:09:34.642Z,82.68
2023-01-27T16:12:31.446Z,82.83
2023-01-27T16:15:01.869Z,82.25
2023-01-27T16:17:33.315Z,82.77
2023-01-27T16:20:20.991Z,82.34
2023-01-27T16:22:58.329Z,82.23
2023-01-27T16:25:41.198Z,82.95
2023-01-27T16:28:20.003Z,82.60
2023-01-27T16:30:57.282Z,82.48
2023-01-27T16:33:31.094Z,82.92
2023-01-27T16:36:06.457Z,83.24
2023-01-27T16:38:37.005Z,82.67
2023-01-27T16:41:16.156Z,82.35
2023-01-27T16:43:48.689Z,83.35
2023-01-27T16:46:38.133Z,82.87
2023-01-27T16:49:32.222Z,82.87
2023-01-27T16:52:05.124Z,83.18
2023-01-27T16:54:40.038Z,83.06
2023-01-27T16:57:23.463Z,82.81
2023-01-27T16:59:52.251Z,83.13
2023-01-27T17:02:23.934Z,83.21
2023-01-27T17:04:56.127Z,83.46
2023-01-27T17:07:23.858Z,83.04
2023-01-27T17:09:54.850Z,83.28
2023-01-27T17:12:33.257Z,83.13
2023-01-27T17:15:15.561Z,82.97
2023-01-27T17:17:43.770Z,82.65
2023-01-27T17:20:23.832Z,83.20
2023-01-27T17:22:54.369Z,82.84
2023-01-27T17:25:41.669Z,83.07
2023-01-27T17:28:16.906Z,83.39
2023-01-27T17:30:46.822Z,83.00
2023-01-27T17:33:18.672Z,83.44
2023-01-27T17:35:52.479Z,83.89
2023-01-27T17:38:25.957Z,83.31
2023-01-27T17:40:55.080Z,83.47
2023-01-27T17:43:30.989Z,83.27
2023-01-27T17:46:14.924Z,83.21
2023-01-27T17:48:52.265Z,83.49
2023-01-27T17:51:25.585Z,82.88
2023-01-27T17:53:54.554Z,82.81
2023-01-27T17:56:27.841Z,83.02
2023-01-27T17:59:03.021Z,82.89
2023-01-27T18:01:31.657Z,83.34
2023-01-27T18:04:00.164Z,83.06
2023-01-27T18:06:32.105Z,83.03
2023-01-27T18:09:14.573Z,83.66
2023-01-27T18:12:01.311Z,83.38
2023-01-27T18:14:34.252Z,83.64
2023-01-27T18:17:23.081Z,83.15
2023-01-27T18:19:53.188Z,83.22
2023-01-27T18:22:22.452Z,83.20
2023-01-27T18:24:53.442Z,84.13
2023-01-27T18:27:28.065Z,83.52
2023-01-27T18:30:00.717Z,83.86
2023-01-27T18:32:37.658Z,83.65
2023-01-27T18:35:25.316Z,83.85
2023-01-27T18:38:01.625Z,83.63
2023-01-27T18:40:32.924Z,83.78
2023-01-27T18:43:02.483Z,83.41
2023-01-27T18:45:31.036Z,83.45
2023-01-27T18:47:59.564Z,83.79
2023-01-27T18:50:28.145Z,83.94
2023-01-27T18:52:55.755Z,83.49
2023-01-27T18:55:28.918Z,83.58
2023-01-27T18:57:58.780Z,83.59
2023-01-27T19:00:30.339Z,83.98
2023-01-27T19:03:01.051Z,84.16
2023-01-27T19:05:32.140Z,83.78
2023-01-27T19:08:00.709Z,83.64
2023-01-27T19:10:32.447Z,84.10
2023-01-27T19:13:02.617Z,84.86
2023-01-27T19:15:37.360Z,84.04
2023-01-27T19:18:24.314Z,84.54
2023-01-27T19:20:53.214Z,85.64
2023-01-27T19:23:21.653Z,84.84
2023-01-27T19:25:53.282Z,85.14
2023-01-27T19:28:29.061Z,85.26
2023-01-27T19:30:57.745Z,85.25
2023-01-27T19:33:28.054Z,85.05
2023-01-27T19:36:14.062Z,85.04
2023-01-27T19:38:41.770Z,84.81
2023-01-27T19:41:10.753Z,84.85
2023-01-27T19:43:38.515Z,85.31
2023-01-27T19:46:13.762Z,85.31
2023-01-27T19:48:41.775Z,85.37
2023-01-27T19:51:11.960Z,84.48
2023-01-27T19:53:39.670Z,85.37
2023-01-27T19:56:17.156Z,85.08
2023-01-27T19:58:47.188Z,84.94
2023-01-27T20:01:15.033Z,85.09
2023-01-27T20:03:42.823Z,86.04
2023-01-27T20:06:17.534Z,85.48
2023-01-27T20:08:45.214Z,85.25
2023-01-27T20:11:34.593Z,85.41
2023-01-27T20:14:26.141Z,85.90
2023-01-27T20:16:53.829Z,85.26
2023-01-27T20:19:21.495Z,85.71
2023-01-27T20:21:50.151Z,85.61
2023-01-27T20:24:19.771Z,85.92
2023-01-27T20:26:47.843Z,86.54
2023-01-27T20:29:15.598Z,85.83
2023-01-27T20:31:43.543Z,85.98
2023-01-27T20:34:11.499Z,86.13
2023-01-27T20:36:39.301Z,85.79
2023-01-27T20:39:06.998Z,85.68
2023-01-27T20:41:34.620Z,86.12
2023-01-27T20:44:02.365Z,86.26
2023-01-27T20:46:30.745Z,86.05
2023-01-27T20:48:58.998Z,86.01
2023-01-27T20:51:26.875Z,86.68
2023-01-27T20:53:54.885Z,86.11
2023-01-27T20:56:23.914Z,86.17
2023-01-27T20:58:51.763Z,86.02
2023-01-27T21:01:21.978Z,86.14
2023-01-27T21:03:50.581Z,85.98
2023-01-27T21:06:21.732Z,86.36
2023-01-27T21:08:49.732Z,86.18
2023-01-27T21:11:20.070Z,85.56
2023-01-27T21:13:48.822Z,85.34
2023-01-27T21:16:16.649Z,85.89
2023-01-27T21:18:44.583Z,85.56
2023-01-27T21:21:28.022Z,86.15
2023-01-27T21:23:57.395Z,86.48
2023-01-27T21:26:25.147Z,86.10
2023-01-27T21:28:53.243Z,86.44
2023-01-27T21:31:22.163Z,86.21
2023-01-27T21:33:50.752Z,86.18
2023-01-27T21:36:19.410Z,86.36
2023-01-27T21:38:50.333Z,86.32
2023-01-27T21:41:57.974Z,86.26
2023-01-27T21:44:46.763Z,86.26
2023-01-27T21:47:17.748Z,86.82
2023-01-27T21:50:02.841Z,87.56
2023-01-27T21:52:35.580Z,87.06
2023-01-27T21:55:06.291Z,86.47
2023-01-27T21:57:34.879Z,86.91
2023-01-27T22:00:05.301Z,86.25
2023-01-27T22:02:40.047Z,86.51
2023-01-27T22:05:09.618Z,86.82
2023-01-27T22:07:38.529Z,86.89
2023-01-27T22:10:08.996Z,86.95
2023-01-27T22:12:36.638Z,87.27
2023-01-27T22:15:06.445Z,86.81
2023-01-27T22:17:34.839Z,86.91
2023-01-27T22:20:04.019Z,86.98
2023-01-27T22:22:31.761Z,87.09
2023-01-27T22:24:59.476Z,87.38
2023-01-27T22:27:27.091Z,87.14
2023-01-27T22:29:54.719Z,87.14
2023-01-27T22:32:22.479Z,86.82
2023-01-27T22:34:50.714Z,86.69
2023-01-27T22:37:18.425Z,87.30
2023-01-27T22:39:46.064Z,86.85
2023-01-27T22:42:14.494Z,86.53
2023-01-27T22:44:42.145Z,87.11
2023-01-27T22:47:09.772Z,86.98
2023-01-27T22:49:37.471Z,87.04
2023-01-27T22:52:05.166Z,86.96
2023-01-27T22:54:32.827Z,87.18
2023-01-27T22:57:01.227Z,86.92
2023-01-27T22:59:29.002Z,86.64
2023-01-27T23:01:56.690Z,86.78
2023-01-27T23:04:24.373Z,86.67
2023-01-27T23:06:52.139Z,86.94
2023-01-27T23:09:19.791Z,88.07
2023-01-27T23:11:47.615Z,87.02
2023-01-27T23:14:15.257Z,87.17
2023-01-27T23:16:42.963Z,87.15
2023-01-27T23:19:11.019Z,87.48
2023-01-27T23:21:38.674Z,87.38
2023-01-27T23:24:07.757Z,87.26
2023-01-27T23:26:35.681Z,87.80
2023-01-27T23:29:05.186Z,87.37
2023-01-27T23:31:36.311Z,87.05
2023-01-27T23:34:04.087Z,87.57
2023-01-27T23:36:31.992Z,88.00
2023-01-27T23:38:59.672Z,87.39
2023-01-27T23:41:27.629Z,87.59
2023-01-27T23:43:56.581Z,88.29
2023-01-27T23:46:25.097Z,87.89
2023-01-27T23:48:54.808Z,87.63
2023-01-27T23:51:22.709Z,87.88
2023-01-27T23:53:51.178Z,87.50
2023-01-27T23:56:20.517Z,87.93
2023-01-27T23:58:48.470Z,87.38
